الصفحة الرئيسية
METAR-TAF:

METAR-TAF

مطار :

Zinder, النيجر

دائرة عرض: 13-47N, خط طول: 008-59E, ارتفاع: 452 متر

مراقبة الطقس الحالي

تاريخ ووقت الإصدار 57 دقيقة قبل الساعة 18:00UTC
ريح 4 عقدة من الشرق/الشمال الشرقي
درجة الحرارة 38°درجة مئوية
الرطوبة 12%
ضغط 1006 hPa
الرؤية: 6000 متر

METAR: DRZR 221800Z 06004KT 6000 NSC 38/04 Q1006

زمن: 19:57 (18:57 UTC)

توقعات

تاريخ ووقت الإصدار 1ساعة و 57 دقيقة قبل الساعة 17:00UTC
التوقعات صالحة من22 الساعة 18 UTC إلى 23 الساعة 18 UTC
ريح 6 عقدة من الشرق/الشمال الشرقي
الرؤية: 6000 متر
مؤقت
من 23 الساعة 08 UTC إلى 23 الساعة 12 UTC
ريح 16 عقدة من الجنوب/الجنوب الشرقي
الرؤية: 1200 متر
هبوب الغبار

TAF: DRZR 221700Z 2218/2318 06006KT 6000 NSC TEMPO 2308/2312 16016KT 1200 BLDU

أرصاد الطقس والتوقعات من أكثر من 4000 مطار (تقارير الطقس للمطار METAR والتنبؤ بالطقس بالمطارTAF).

المحطات المتاحة هي النقط الصفراء والحمراء على الخريطة.

حرك المؤشر فوق النقطة لمعرفة اسم المحطة.

ثم انقر لمعرفة أرصاد وتوقعات الطقس.

لتغيير الخارطة: اضغط على الأزرار الخضراء مع رمز الصليب الأسود للتكبير. على الزر الأخضر مع شرطة للتصغير، أو على الأسهم الخضراء للخرائط المجاورة.


METAR-TAF: